Time;durP1;ratioP1;P1;durP2;ratioP2;P2;SDS_P1;SDS_P2;PMS_P1;PMS_P2;Temp;Humidity;BMP_temperature;BMP_pressure;BME280_temperature;BME280_humidity;BME280_pressure;Samples;Min_cycle;Max_cycle;Signal;HPM_P1;HPM_P2
2021/04/10 06:41:50;;;;;;;6.33;3.43;;;14.50;45.20;;;;;;5303459;23;20410;31
2021/04/10 07:23:29;;;;;;;5.20;3.13;;;17.00;41.50;;;;;;6004024;23;20424;31
2021/04/10 07:25:56;;;;;;;7.18;3.15;;;16.40;40.80;;;;;;5507557;23;21639;-94
2021/04/10 07:28:40;;;;;;;6.37;3.00;;;15.30;42.50;;;;;;4894120;29;20746;-93
2021/04/10 08:00:16;;;;;;;7.00;3.03;;;12.40;51.40;;;;;;5167077;23;20429;-94
2021/04/10 08:03:08;;;;;;;8.77;3.13;;;12.10;52.20;;;;;;4847618;29;20957;-96
2021/04/10 08:05:47;;;;;;;8.05;3.10;;;12.00;52.90;;;;;;5439521;23;21314;-91
2021/04/10 08:08:30;;;;;;;7.50;2.97;;;12.50;52.10;;;;;;4896020;29;20423;-94
2021/04/10 08:12:21;;;;;;;6.68;2.70;;;12.80;52.00;;;;;;5223964;23;20518;-96
2021/04/10 08:23:39;;;;;;;5.93;2.40;;;13.30;50.60;;;;;;5544067;23;20441;-93
2021/04/10 08:29:21;;;;;;;5.90;2.55;;;13.60;48.00;;;;;;5002378;23;20425;-94
2021/04/10 08:31:50;;;;;;;5.13;2.30;;;14.30;47.20;;;;;;4919013;29;20423;-96
2021/04/10 08:34:31;;;;;;;5.63;2.88;;;14.20;46.70;;;;;;4909966;29;20528;-95
2021/04/10 08:37:04;;;;;;;7.07;2.55;;;14.50;46.70;;;;;;4921256;23;20504;-94
2021/04/10 08:39:56;;;;;;;10.00;3.15;;;14.80;45.60;;;;;;4917494;29;20457;-92
2021/04/10 08:42:26;;;;;;;8.25;3.13;;;15.10;44.90;;;;;;4934140;28;20432;-94
2021/04/10 08:44:53;;;;;;;5.45;2.85;;;15.10;44.20;;;;;;4916992;29;20421;-93
2021/04/10 08:47:21;;;;;;;8.68;2.88;;;15.40;43.30;;;;;;4933182;29;20427;-92
2021/04/10 08:49:50;;;;;;;9.85;2.75;;;15.30;41.50;;;;;;4914931;29;20421;-93
2021/04/10 08:52:22;;;;;;;6.28;2.70;;;15.30;44.80;;;;;;4930432;29;20433;-95
2021/04/10 08:54:51;;;;;;;6.60;2.70;;;15.50;44.40;;;;;;4905266;29;20875;-90
2021/04/10 08:57:17;;;;;;;7.88;2.88;;;16.10;41.70;;;;;;4916638;29;20439;-90
2021/04/10 08:59:46;;;;;;;6.38;2.80;;;16.20;41.10;;;;;;4916860;29;20445;-90
2021/04/10 09:02:19;;;;;;;7.55;3.00;;;16.30;41.50;;;;;;4918114;29;20469;-93
2021/04/10 09:05:07;;;;;;;7.13;2.60;;;15.90;41.80;;;;;;4917190;29;20433;-88
2021/04/10 09:07:57;;;;;;;5.70;2.67;;;15.60;39.00;;;;;;4916736;29;20449;-87
2021/04/10 09:10:23;;;;;;;9.45;2.70;;;15.50;41.20;;;;;;4917668;29;20457;-91
2021/04/10 09:13:05;;;;;;;6.75;2.75;;;15.20;41.80;;;;;;4918181;29;20460;-91
2021/04/10 09:15:32;;;;;;;8.20;2.83;;;14.50;43.40;;;;;;4916645;29;20425;-92
2021/04/10 09:18:00;;;;;;;5.25;2.67;;;14.20;45.90;;;;;;4916593;29;20942;-92
2021/04/10 09:20:53;;;;;;;8.35;3.20;;;14.30;45.30;;;;;;4908459;29;20434;-92
2021/04/10 09:23:31;;;;;;;7.53;3.08;;;14.30;45.60;;;;;;4894667;29;20498;-92
2021/04/10 09:26:12;;;;;;;10.70;3.70;;;14.70;46.00;;;;;;4898278;29;20435;-92
2021/04/10 09:29:14;;;;;;;9.05;3.10;;;14.80;46.70;;;;;;4897574;29;20432;-91
2021/04/10 09:31:46;;;;;;;7.75;2.90;;;15.20;46.70;;;;;;4898236;29;20438;-92
2021/04/10 09:34:51;;;;;;;6.70;2.85;;;15.20;44.50;;;;;;4897527;29;20441;-90
2021/04/10 09:37:21;;;;;;;8.43;2.70;;;15.00;45.40;;;;;;4899672;29;20454;-93
2021/04/10 09:39:51;;;;;;;7.15;2.90;;;14.50;45.40;;;;;;4899505;29;20909;-96
2021/04/10 09:42:44;;;;;;;8.43;2.92;;;14.70;46.80;;;;;;4898828;29;20423;-92
2021/04/10 09:45:13;;;;;;;5.50;2.73;;;14.60;47.00;;;;;;4908962;29;20410;-92
2021/04/10 09:48:10;;;;;;;6.20;2.67;;;14.50;46.10;;;;;;4914197;29;20438;-92
2021/04/10 09:51:03;;;;;;;7.10;2.80;;;14.40;47.40;;;;;;4897440;29;20427;-92
2021/04/10 09:53:30;;;;;;;6.72;2.20;;;14.50;47.40;;;;;;4889287;29;20435;-93
2021/04/10 09:56:07;;;;;;;3.67;2.00;;;14.50;47.60;;;;;;4898530;29;20427;-93
2021/04/10 09:58:39;;;;;;;6.93;2.10;;;14.10;46.30;;;;;;4899987;29;20442;-93
2021/04/10 10:01:08;;;;;;;6.60;2.30;;;14.10;47.40;;;;;;4902116;29;20769;-92
2021/04/10 10:03:35;;;;;;;5.20;2.08;;;14.00;45.70;;;;;;4901209;29;20461;-92
2021/04/10 10:06:31;;;;;;;7.50;2.03;;;13.90;46.30;;;;;;4901011;29;20441;-93
2021/04/10 10:08:58;;;;;;;5.10;1.90;;;13.90;45.90;;;;;;4901263;29;20510;-93
2021/04/10 10:11:27;;;;;;;3.92;2.10;;;13.80;47.40;;;;;;4901765;29;20451;-93
2021/04/10 10:13:57;;;;;;;7.78;2.17;;;13.90;47.70;;;;;;4907499;29;20445;-92
2021/04/10 10:16:30;;;;;;;5.82;2.08;;;13.90;47.80;;;;;;4923374;29;20443;-93
2021/04/10 10:18:58;;;;;;;5.70;1.88;;;13.90;47.10;;;;;;4923590;29;20407;-93
2021/04/10 10:21:25;;;;;;;5.20;2.00;;;13.90;47.70;;;;;;4922649;29;20430;-92
2021/04/10 10:23:52;;;;;;;7.68;2.10;;;14.00;47.50;;;;;;4907338;29;20443;-93
2021/04/10 10:26:20;;;;;;;6.95;2.40;;;14.00;47.80;;;;;;4902653;29;20434;-93
2021/04/10 10:28:59;;;;;;;7.40;2.30;;;14.00;48.90;;;;;;4901020;29;20446;-92
2021/04/10 10:31:28;;;;;;;3.97;2.17;;;14.00;48.40;;;;;;4900407;29;20446;-92
2021/04/10 10:34:02;;;;;;;6.57;2.13;;;14.20;48.30;;;;;;4900721;29;20434;-91
2021/04/10 10:36:33;;;;;;;4.70;2.20;;;14.00;48.10;;;;;;4900437;29;20449;-91
2021/04/10 10:39:00;;;;;;;6.50;2.17;;;14.00;47.20;;;;;;4901064;29;20454;-92
2021/04/10 10:41:28;;;;;;;3.88;2.20;;;14.10;49.10;;;;;;4901035;29;20431;-93
2021/04/10 10:44:02;;;;;;;7.90;2.55;;;14.50;48.30;;;;;;4900853;29;20458;-93
2021/04/10 10:46:28;;;;;;;6.82;2.50;;;14.70;48.00;;;;;;4901137;29;20514;-92
2021/04/10 10:48:58;;;;;;;6.45;1.90;;;14.40;48.70;;;;;;4904509;29;20487;-94
2021/04/10 10:51:30;;;;;;;7.77;2.50;;;14.40;48.80;;;;;;4904526;29;20960;-92
2021/04/10 10:54:50;;;;;;;6.13;1.98;;;14.40;49.70;;;;;;4891823;29;20477;-96
2021/04/10 10:58:23;;;;;;;;;;;;;;;;;;;;;
2021/04/10 11:01:23;;;;;;;6.97;2.13;;;14.60;47.70;;;;;;4860146;29;20423;-96
2021/04/10 11:04:41;;;;;;;8.52;2.08;;;14.50;47.80;;;;;;4799862;30;20966;-96
2021/04/10 11:07:23;;;;;;;7.40;2.25;;;14.30;45.60;;;;;;4800274;30;20433;-96
2021/04/10 11:12:43;;;;;;;7.43;2.30;;;14.30;49.40;;;;;;4880700;29;20512;-95
2021/04/10 11:15:41;;;;;;;8.50;2.70;;;14.40;47.40;;;;;;5231398;23;20432;-96
2021/04/10 11:18:28;;;;;;;6.68;2.40;;;14.50;50.00;;;;;;4898034;29;20852;-95
2021/04/10 11:21:22;;;;;;;5.85;2.30;;;14.20;47.70;;;;;;4907996;29;20502;-96
2021/04/10 11:23:58;;;;;;;6.95;2.45;;;13.90;49.70;;;;;;4897233;29;20512;-96
2021/04/10 11:27:26;;;;;;;7.97;2.57;;;13.90;48.90;;;;;;4906444;29;20438;-95
2021/04/10 11:41:06;;;;;;;8.10;2.00;;;16.80;44.80;;;;;;4632345;23;20696;-95
2021/04/10 11:43:38;;;;;;;7.88;2.22;;;17.10;45.10;;;;;;4980110;23;20454;-95
2021/04/10 11:46:15;;;;;;;6.30;2.37;;;17.40;43.00;;;;;;4906080;29;20441;-95
2021/04/10 11:48:44;;;;;;;5.73;2.20;;;17.50;42.90;;;;;;4885857;29;20849;-96
2021/04/10 11:51:25;;;;;;;5.50;2.30;;;17.50;42.60;;;;;;4911378;29;21712;-96
2021/04/10 11:54:39;;;;;;;7.93;2.40;;;17.00;44.00;;;;;;4890478;29;20469;-95
2021/04/10 11:58:15;;;;;;;7.00;2.40;;;16.90;44.80;;;;;;4913475;29;20976;-95
2021/04/10 12:00:53;;;;;;;4.63;1.85;;;17.70;45.30;;;;;;4853326;29;20448;-94
2021/04/10 12:03:41;;;;;;;7.45;2.17;;;17.30;41.00;;;;;;4834502;29;20444;-94
2021/04/10 12:06:50;;;;;;;6.45;2.38;;;16.70;42.70;;;;;;4837635;29;20436;-95
2021/04/10 12:09:39;;;;;;;;;;;;;;;;;;;;;
2021/04/10 12:12:38;;;;;;;8.43;2.53;;;16.90;43.40;;;;;;4852994;29;20512;-96
2021/04/10 12:15:34;;;;;;;8.43;2.20;;;17.10;40.90;;;;;;4840308;29;20447;-95
2021/04/10 12:18:26;;;;;;;6.00;2.03;;;17.50;40.00;;;;;;4833392;29;20444;-95
2021/04/10 12:21:10;;;;;;;;;;;;;;;;;;;;;
2021/04/10 12:23:51;;;;;;;4.20;1.80;;;17.50;43.60;;;;;;4850861;29;20463;-94
2021/04/10 12:26:36;;;;;;;;;;;;;;;;;;;;;
2021/04/10 12:29:06;;;;;;;6.97;2.20;;;17.60;42.30;;;;;;4843560;29;20444;-95
2021/04/10 12:31:40;;;;;;;5.90;2.00;;;17.70;42.20;;;;;;4833386;29;20638;-95
2021/04/10 12:34:45;;;;;;;;;;;;;;;;;;;;;
2021/04/10 12:41:51;;;;;;;6.40;1.80;;;17.90;38.40;;;;;;4804359;29;20900;-94
2021/04/10 12:44:26;;;;;;;7.60;1.90;;;17.40;40.30;;;;;;4809078;29;20482;-94
2021/04/10 12:46:54;;;;;;;6.97;2.00;;;17.80;40.40;;;;;;4799869;29;20439;-95
2021/04/10 12:49:49;;;;;;;7.00;1.88;;;18.50;40.30;;;;;;4798559;29;20440;-96
2021/04/10 12:52:37;;;;;;;7.28;2.53;;;19.30;39.50;;;;;;4783142;30;20478;-95
2021/04/10 12:55:36;;;;;;;5.28;2.17;;;20.00;37.60;;;;;;4794369;30;20441;-95
2021/04/10 12:58:33;;;;;;;6.53;2.42;;;20.20;33.60;;;;;;4953074;23;20445;-95
2021/04/10 13:01:04;;;;;;;5.30;1.98;;;19.40;37.70;;;;;;4928246;29;20456;-95
2021/04/10 13:03:44;;;;;;;5.77;1.90;;;19.20;35.70;;;;;;4927056;29;21025;-96
2021/04/10 13:06:31;;;;;;;5.97;1.95;;;18.60;36.70;;;;;;4926591;29;20440;-95
2021/04/10 13:09:33;;;;;;;5.90;1.98;;;18.10;39.00;;;;;;4931921;29;20413;-95
2021/04/10 13:12:13;;;;;;;11.80;2.42;;;17.40;38.70;;;;;;4932048;29;20433;-96
2021/04/10 13:14:45;;;;;;;5.53;2.35;;;17.10;40.60;;;;;;4930272;29;20493;-94
2021/04/10 13:17:21;;;;;;;5.07;2.20;;;17.00;41.30;;;;;;4914091;29;20429;-95
2021/04/10 13:19:52;;;;;;;8.20;2.20;;;17.00;38.60;;;;;;4925409;29;20462;-96
2021/04/10 13:22:52;;;;;;;10.18;2.25;;;17.00;40.60;;;;;;4908775;29;20414;-96
2021/04/10 16:13:15;;;;;;;7.53;1.87;;;20.40;33.50;;;;;;5695240;23;20445;-95
2021/04/10 16:15:53;;;;;;;5.00;1.63;;;20.60;35.10;;;;;;4901114;29;20812;-95
2021/04/10 16:29:05;;;;;;;3.77;1.60;;;21.50;34.10;;;;;;4938641;29;20435;-96
2021/04/10 16:48:12;;;;;;;4.00;1.77;;;18.50;39.80;;;;;;5677126;23;20505;-95
2021/04/10 16:59:36;;;;;;;5.03;1.70;;;17.10;42.80;;;;;;5117980;23;20439;-95
2021/04/10 17:02:29;;;;;;;7.10;1.92;;;16.70;43.60;;;;;;4884912;29;20415;-95
2021/04/10 17:05:22;;;;;;;6.38;2.05;;;16.40;46.20;;;;;;4913445;29;20457;-95
2021/04/10 17:08:27;;;;;;;7.30;2.20;;;16.10;47.70;;;;;;4905238;29;20443;-95
2021/04/10 17:11:19;;;;;;;7.72;1.90;;;16.00;46.70;;;;;;4898571;29;20427;-96
2021/04/10 17:14:03;;;;;;;10.80;1.92;;;15.80;46.20;;;;;;4900524;29;20426;-95
2021/04/10 17:16:35;;;;;;;8.07;2.30;;;15.50;46.50;;;;;;4904640;29;20430;-95
2021/04/10 17:19:12;;;;;;;7.15;1.95;;;15.20;47.50;;;;;;4920841;29;20462;-95
2021/04/10 17:21:49;;;;;;;8.95;2.20;;;14.90;48.90;;;;;;4920642;29;20415;-95
2021/04/10 17:24:33;;;;;;;6.45;1.92;;;14.50;51.90;;;;;;4909378;29;20443;-95
2021/04/10 17:31:07;;;;;;;8.77;2.63;;;13.30;55.00;;;;;;4920041;29;20390;-95
2021/04/10 20:56:07;;;;;;;7.50;2.40;;;9.00;68.40;;;;;;5974125;23;20612;31
